메인 페이지
METAR-TAF:

METAR-TAF

공항 :

나가사키 공항

나가사키, 일본

위도: 32-55N, 경도: 129-55E, 고도: 2m

현재 날씨관측

예보는 25분 전, 09:00시(UTC)에 발표되었습니다.
12kt
온도 11°C
습도 94%
기압 1016 hPa
시정: 8000m
고도 200ft 상공 구름 조금
고도 1000ft 상공 구름 보통
고도 2000ft 상공 구름 많음
약한소나기

METAR: RJFU 160900Z 36012KT 8000 -SHRA FEW002 SCT010 BKN020 11/10 Q1016

시각: 18:25 (09:25 UTC)

예보

예보는 1 시간 51분 전, 07:34시(UTC)에 발표되었습니다.
예보 대상 시간: 16일 07시부터 17일 12시까지 (UTC)
남남동13kt
시정: 8000m
고도 1000ft 상공 구름 조금
고도 2000ft 상공 구름 보통
고도 3000ft 상공 구름 많음
약한소나기
전환 중
16일 07시부터 16일 09시까지 (UTC)
9kt
일시적
16일 07시부터 16일 10시까지 (UTC)
시정: 4000m
고도 300ft 상공 구름 조금
고도 500ft 상공 구름 보통
고도 800ft 상공 구름 많음
소나기, 박무
전환 중
16일 15시부터 16일 17시까지 (UTC)
남남동3kt
전환 중
16일 18시부터 16일 21시까지 (UTC)
북서16kt

TAF: RJFU 160734Z 1607/1712 15013KT 8000 -SHRA FEW010 SCT020 BKN030 BECMG 1607/1609 01009KT TEMPO 1607/1610 4000 SHRA BR FEW003 SCT005 BKN008 BECMG 1615/1617 15003KT BECMG 1618/1621 32016KT

4,000개 이상의 공항 관측 자료 및 예보 (METAR 및 TAF 보고).

지도상에서 검색 가능한 기상관측소가 노란 점과 빨간 점으로 표시되어 있습니다.

기상관측소 명을 보려면 표시 위로 마우스를 이동하세요.

날씨 관측과 예보를 보려면 클릭하세요.

지도 변경 : 확대하려면 엑스 표시가 있는 녹색 버튼, 축소하려면 빼기 표시가 있는 녹색 버튼, 다음 페이지의 지도를 보려면 녹색 화살표를 클릭하세요.


METAR-TAF: